ACH2055 HUEN-LEIB
Flight info
| Callsign | ACH2055 |
|---|---|
| Flight time | N/A |
| Altitude | 30000 |
| Route | DUGBO2B SEZIM UW325 SIPKI UT325 BUN UG862 DIR UB730 BOD UM508 TGU UJ36 BSA UJ66 ALR UG30 SADAF N856 INSUB |
| Aircraft | B738/M-SDE2E3FGHIRWXY/LB1 |
Departure
| Time | N/A |
|---|---|
| Airport | Entebbe International Airport (HUEN) |
Arrival
| Time | 2026-05-07 19:58 |
|---|---|
| Airport | Ibiza Airport (LEIB) |
| Time | Latitude | Longitude | Altitude | Speed | Heading |
|---|---|---|---|---|---|
| 2026-05-07 18:37 | 14.11117 | 18.35465 | 35759 ft | 423 kts | 332° |
| 2026-05-07 18:37 | 14.52497 | 18.12571 | 35810 ft | 420 kts | 332° |
| 2026-05-07 18:38 | 15.34554 | 17.66883 | 35796 ft | 419 kts | 332° |
| 2026-05-07 18:38 | 16.16203 | 17.20982 | 35864 ft | 417 kts | 331° |
| 2026-05-07 18:39 | 16.97801 | 16.74645 | 35831 ft | 417 kts | 330° |
| 2026-05-07 18:39 | 17.79147 | 16.27957 | 35798 ft | 418 kts | 330° |
| 2026-05-07 18:39 | 18.19825 | 16.04521 | 35910 ft | 416 kts | 329° |
| 2026-05-07 18:40 | 18.60680 | 15.80769 | 35896 ft | 417 kts | 329° |
| 2026-05-07 18:40 | 19.41613 | 15.33374 | 35891 ft | 418 kts | 328° |
| 2026-05-07 18:41 | 20.22817 | 14.85149 | 35863 ft | 419 kts | 328° |
| 2026-05-07 18:41 | 21.04006 | 14.36442 | 35843 ft | 416 kts | 327° |
| 2026-05-07 18:42 | 21.84425 | 13.87715 | 35849 ft | 415 kts | 326° |
| 2026-05-07 18:42 | 22.64456 | 13.38405 | 35905 ft | 413 kts | 325° |
| 2026-05-07 18:43 | 23.44366 | 12.88572 | 35845 ft | 413 kts | 324° |
| 2026-05-07 18:43 | 24.24017 | 12.38142 | 35859 ft | 414 kts | 323° |
| 2026-05-07 18:44 | 25.03981 | 11.86872 | 35876 ft | 417 kts | 323° |
| 2026-05-07 18:44 | 25.84582 | 11.34161 | 35878 ft | 423 kts | 322° |
| 2026-05-07 18:45 | 26.65167 | 10.80742 | 35743 ft | 424 kts | 321° |
| 2026-05-07 18:45 | 27.46206 | 10.26378 | 35812 ft | 424 kts | 320° |
| 2026-05-07 18:46 | 28.27673 | 9.70649 | 35851 ft | 429 kts | 319° |
| 2026-05-07 18:46 | 29.09174 | 9.13257 | 35888 ft | 435 kts | 319° |
| 2026-05-07 18:47 | 29.91941 | 8.54694 | 35913 ft | 440 kts | 318° |
| 2026-05-07 18:47 | 30.76081 | 7.93652 | 35921 ft | 450 kts | 319° |
| 2026-05-07 18:48 | 31.60321 | 7.31103 | 35921 ft | 448 kts | 317° |
| 2026-05-07 18:48 | 32.44514 | 6.67534 | 35877 ft | 449 kts | 316° |
| 2026-05-07 18:49 | 33.18121 | 6.11122 | 35871 ft | 448 kts | 314° |
| 2026-05-07 18:49 | 33.23198 | 6.06805 | 35821 ft | 447 kts | 311° |
| 2026-05-07 18:50 | 33.28302 | 6.02490 | 35818 ft | 449 kts | 312° |
| 2026-05-07 18:50 | 33.33474 | 5.98318 | 35825 ft | 450 kts | 313° |
| 2026-05-07 18:51 | 33.38680 | 5.94216 | 35834 ft | 449 kts | 314° |
| 2026-05-07 18:51 | 33.43919 | 5.90107 | 35834 ft | 448 kts | 314° |
| 2026-05-07 18:52 | 33.49132 | 5.86008 | 35834 ft | 447 kts | 313° |
| 2026-05-07 18:52 | 33.54293 | 5.81938 | 35836 ft | 446 kts | 313° |
| 2026-05-07 18:53 | 33.59490 | 5.77831 | 35854 ft | 446 kts | 313° |
| 2026-05-07 18:53 | 33.64650 | 5.73748 | 35849 ft | 446 kts | 313° |
| 2026-05-07 18:54 | 33.69857 | 5.69621 | 35867 ft | 447 kts | 313° |
| 2026-05-07 18:54 | 33.75028 | 5.65517 | 35861 ft | 448 kts | 313° |
| 2026-05-07 18:55 | 33.80242 | 5.61373 | 35858 ft | 449 kts | 313° |
| 2026-05-07 18:55 | 33.85430 | 5.57242 | 35862 ft | 450 kts | 314° |
| 2026-05-07 18:56 | 33.90674 | 5.53063 | 35861 ft | 451 kts | 314° |
| 2026-05-07 18:56 | 33.95912 | 5.48883 | 35853 ft | 451 kts | 314° |
| 2026-05-07 18:57 | 34.01159 | 5.44689 | 35858 ft | 452 kts | 314° |
| 2026-05-07 18:57 | 34.06382 | 5.40508 | 35860 ft | 452 kts | 314° |
| 2026-05-07 18:58 | 34.11597 | 5.36326 | 35881 ft | 451 kts | 314° |
| 2026-05-07 18:58 | 34.16831 | 5.32123 | 35876 ft | 451 kts | 315° |
| 2026-05-07 18:59 | 34.22031 | 5.27942 | 35856 ft | 450 kts | 315° |
| 2026-05-07 18:59 | 34.27257 | 5.23734 | 35853 ft | 448 kts | 315° |
| 2026-05-07 19:00 | 34.32415 | 5.19574 | 35856 ft | 447 kts | 315° |
| 2026-05-07 19:00 | 34.37581 | 5.15399 | 35892 ft | 445 kts | 315° |
| 2026-05-07 19:01 | 34.42747 | 5.11219 | 35869 ft | 445 kts | 315° |
| 2026-05-07 19:01 | 34.47858 | 5.07077 | 35859 ft | 444 kts | 315° |
| 2026-05-07 19:02 | 34.53007 | 5.02898 | 35869 ft | 444 kts | 315° |
| 2026-05-07 19:02 | 34.58138 | 4.98727 | 35872 ft | 443 kts | 315° |
| 2026-05-07 19:03 | 34.63251 | 4.94563 | 35894 ft | 443 kts | 316° |
| 2026-05-07 19:03 | 34.68357 | 4.90398 | 35886 ft | 444 kts | 317° |
| 2026-05-07 19:04 | 34.73493 | 4.86205 | 35884 ft | 444 kts | 317° |
| 2026-05-07 19:04 | 34.78613 | 4.82019 | 35891 ft | 443 kts | 317° |
| 2026-05-07 19:05 | 34.83738 | 4.77821 | 35897 ft | 443 kts | 317° |
| 2026-05-07 19:05 | 34.88837 | 4.73639 | 35895 ft | 444 kts | 317° |
| 2026-05-07 19:06 | 34.93967 | 4.69425 | 35911 ft | 444 kts | 318° |
| 2026-05-07 19:06 | 35.00777 | 4.63821 | 35902 ft | 443 kts | 318° |
| 2026-05-07 19:07 | 35.05886 | 4.59609 | 35916 ft | 443 kts | 317° |
| 2026-05-07 19:07 | 35.10967 | 4.55414 | 35927 ft | 442 kts | 318° |
| 2026-05-07 19:08 | 35.16058 | 4.51205 | 35914 ft | 440 kts | 318° |
| 2026-05-07 19:08 | 35.21129 | 4.47005 | 35927 ft | 439 kts | 318° |
| 2026-05-07 19:09 | 35.26189 | 4.42808 | 35913 ft | 438 kts | 318° |
| 2026-05-07 19:09 | 35.31198 | 4.38646 | 35915 ft | 437 kts | 318° |
| 2026-05-07 19:10 | 35.36224 | 4.34465 | 35914 ft | 436 kts | 318° |
| 2026-05-07 19:10 | 35.41237 | 4.30287 | 35918 ft | 435 kts | 318° |
| 2026-05-07 19:11 | 35.46247 | 4.26105 | 35923 ft | 435 kts | 318° |
| 2026-05-07 19:11 | 35.51224 | 4.21945 | 35919 ft | 435 kts | 318° |
| 2026-05-07 19:12 | 35.56225 | 4.17758 | 35937 ft | 434 kts | 319° |
| 2026-05-07 19:12 | 35.61221 | 4.13571 | 35921 ft | 433 kts | 319° |
| 2026-05-07 19:13 | 35.66184 | 4.09404 | 35926 ft | 431 kts | 319° |
| 2026-05-07 19:13 | 35.71099 | 4.05271 | 35937 ft | 430 kts | 319° |
| 2026-05-07 19:14 | 35.76021 | 4.01125 | 35943 ft | 428 kts | 319° |
| 2026-05-07 19:14 | 35.80933 | 3.96981 | 35929 ft | 427 kts | 319° |
| 2026-05-07 19:15 | 35.85829 | 3.92844 | 35937 ft | 426 kts | 319° |
| 2026-05-07 19:15 | 35.90719 | 3.88706 | 35931 ft | 426 kts | 319° |
| 2026-05-07 19:16 | 35.95607 | 3.84563 | 35939 ft | 426 kts | 319° |
| 2026-05-07 19:16 | 36.00497 | 3.80412 | 35954 ft | 425 kts | 319° |
| 2026-05-07 19:17 | 36.05379 | 3.76263 | 35945 ft | 426 kts | 319° |
| 2026-05-07 19:17 | 36.10254 | 3.72112 | 35928 ft | 425 kts | 319° |
| 2026-05-07 19:18 | 36.15088 | 3.67992 | 35929 ft | 424 kts | 319° |
| 2026-05-07 19:18 | 36.19941 | 3.63847 | 35973 ft | 423 kts | 319° |
| 2026-05-07 19:19 | 36.24791 | 3.59699 | 35950 ft | 423 kts | 319° |
| 2026-05-07 19:19 | 36.29635 | 3.55550 | 35939 ft | 423 kts | 319° |
| 2026-05-07 19:20 | 36.34478 | 3.51395 | 35936 ft | 422 kts | 319° |
| 2026-05-07 19:20 | 36.39308 | 3.47245 | 35931 ft | 421 kts | 319° |
| 2026-05-07 19:21 | 36.44122 | 3.43103 | 35918 ft | 420 kts | 319° |
| 2026-05-07 19:21 | 36.48900 | 3.38984 | 35936 ft | 420 kts | 319° |
| 2026-05-07 19:22 | 36.53700 | 3.34840 | 35931 ft | 420 kts | 319° |
| 2026-05-07 19:22 | 36.58498 | 3.30691 | 35927 ft | 420 kts | 319° |
| 2026-05-07 19:23 | 36.63304 | 3.26529 | 35937 ft | 420 kts | 319° |
| 2026-05-07 19:23 | 36.68077 | 3.22391 | 35941 ft | 420 kts | 319° |
| 2026-05-07 19:24 | 36.72958 | 3.18341 | 35947 ft | 423 kts | 321° |
| 2026-05-07 19:24 | 36.77985 | 3.14460 | 35943 ft | 424 kts | 321° |
| 2026-05-07 19:25 | 36.82977 | 3.10603 | 35937 ft | 424 kts | 321° |
| 2026-05-07 19:25 | 36.87993 | 3.06684 | 35935 ft | 423 kts | 321° |
| 2026-05-07 19:26 | 36.92958 | 3.02780 | 35936 ft | 422 kts | 321° |
| 2026-05-07 19:26 | 36.97920 | 2.98866 | 35929 ft | 420 kts | 321° |
| 2026-05-07 19:27 | 37.02861 | 2.94962 | 35923 ft | 419 kts | 321° |
| 2026-05-07 19:27 | 37.07758 | 2.91088 | 35919 ft | 417 kts | 320° |
| 2026-05-07 19:28 | 37.12653 | 2.87210 | 35917 ft | 416 kts | 320° |
| 2026-05-07 19:28 | 37.17535 | 2.83336 | 35918 ft | 415 kts | 320° |
| 2026-05-07 19:29 | 37.22411 | 2.79459 | 35929 ft | 416 kts | 320° |
| 2026-05-07 19:29 | 37.27277 | 2.75585 | 35917 ft | 416 kts | 320° |
| 2026-05-07 19:30 | 37.32179 | 2.71676 | 35918 ft | 418 kts | 320° |
| 2026-05-07 19:30 | 37.37099 | 2.67747 | 35909 ft | 419 kts | 320° |
| 2026-05-07 19:31 | 37.42032 | 2.63803 | 35909 ft | 419 kts | 320° |
| 2026-05-07 19:31 | 37.46927 | 2.59883 | 35920 ft | 419 kts | 320° |
| 2026-05-07 19:32 | 37.51851 | 2.55932 | 35910 ft | 419 kts | 320° |
| 2026-05-07 19:32 | 37.56772 | 2.51978 | 35908 ft | 419 kts | 320° |
| 2026-05-07 19:33 | 37.61682 | 2.48026 | 35911 ft | 419 kts | 320° |
| 2026-05-07 19:33 | 37.66591 | 2.44069 | 35911 ft | 418 kts | 320° |
| 2026-05-07 19:34 | 37.71502 | 2.40103 | 35918 ft | 419 kts | 320° |
| 2026-05-07 19:34 | 37.76427 | 2.36119 | 35914 ft | 420 kts | 321° |
| 2026-05-07 19:35 | 37.81343 | 2.32149 | 35910 ft | 422 kts | 321° |
| 2026-05-07 19:35 | 37.86387 | 2.28288 | 35919 ft | 424 kts | 322° |
| 2026-05-07 19:36 | 37.91452 | 2.24475 | 35896 ft | 422 kts | 322° |
| 2026-05-07 19:36 | 37.96491 | 2.20655 | 35914 ft | 421 kts | 322° |
| 2026-05-07 19:37 | 37.99003 | 2.18740 | 35752 ft | 423 kts | 322° |
| 2026-05-07 19:37 | 38.01539 | 2.16800 | 35130 ft | 425 kts | 322° |
| 2026-05-07 19:37 | 38.04065 | 2.14870 | 34444 ft | 422 kts | 322° |
| 2026-05-07 19:37 | 38.06541 | 2.12976 | 33699 ft | 421 kts | 322° |
| 2026-05-07 19:38 | 38.09072 | 2.11037 | 32838 ft | 421 kts | 322° |
| 2026-05-07 19:38 | 38.11579 | 2.09115 | 32031 ft | 420 kts | 323° |
| 2026-05-07 19:38 | 38.14055 | 2.07215 | 31196 ft | 420 kts | 323° |
| 2026-05-07 19:38 | 38.16555 | 2.05295 | 30339 ft | 420 kts | 323° |
| 2026-05-07 19:39 | 38.19072 | 2.03359 | 29360 ft | 424 kts | 324° |
| 2026-05-07 19:39 | 38.21595 | 2.01418 | 28645 ft | 420 kts | 324° |
| 2026-05-07 19:39 | 38.24088 | 1.99501 | 27960 ft | 416 kts | 324° |
| 2026-05-07 19:39 | 38.26570 | 1.97590 | 27278 ft | 419 kts | 324° |
| 2026-05-07 19:40 | 38.29104 | 1.95633 | 26618 ft | 430 kts | 325° |
| 2026-05-07 19:40 | 38.31670 | 1.93652 | 25928 ft | 429 kts | 325° |
| 2026-05-07 19:40 | 38.34183 | 1.91715 | 25258 ft | 424 kts | 325° |
| 2026-05-07 19:40 | 38.36708 | 1.89768 | 24481 ft | 423 kts | 326° |
| 2026-05-07 19:41 | 38.39238 | 1.87814 | 23579 ft | 425 kts | 326° |
| 2026-05-07 19:41 | 38.41766 | 1.85862 | 22580 ft | 425 kts | 326° |
| 2026-05-07 19:41 | 38.44288 | 1.83913 | 21896 ft | 419 kts | 326° |
| 2026-05-07 19:41 | 38.46739 | 1.82015 | 21224 ft | 414 kts | 326° |
| 2026-05-07 19:42 | 38.48971 | 1.79830 | 20358 ft | 398 kts | 312° |
| 2026-05-07 19:42 | 38.50678 | 1.77071 | 19252 ft | 392 kts | 300° |
| 2026-05-07 19:42 | 38.51964 | 1.74017 | 18194 ft | 387 kts | 292° |
| 2026-05-07 19:42 | 38.52855 | 1.70809 | 17132 ft | 378 kts | 281° |
| 2026-05-07 19:43 | 38.53369 | 1.67600 | 16132 ft | 370 kts | 279° |
| 2026-05-07 19:43 | 38.53832 | 1.64384 | 15196 ft | 363 kts | 279° |
| 2026-05-07 19:43 | 38.54278 | 1.61221 | 14230 ft | 358 kts | 278° |
| 2026-05-07 19:43 | 38.54719 | 1.58107 | 13285 ft | 353 kts | 279° |
| 2026-05-07 19:44 | 38.55152 | 1.55098 | 12613 ft | 340 kts | 279° |
| 2026-05-07 19:44 | 38.55585 | 1.52120 | 11973 ft | 338 kts | 279° |
| 2026-05-07 19:44 | 38.56014 | 1.49175 | 11392 ft | 337 kts | 279° |
| 2026-05-07 19:44 | 38.56440 | 1.46270 | 10802 ft | 335 kts | 279° |
| 2026-05-07 19:45 | 38.56865 | 1.43383 | 10620 ft | 321 kts | 279° |
| 2026-05-07 19:45 | 38.57271 | 1.40620 | 10458 ft | 308 kts | 279° |
| 2026-05-07 19:45 | 38.57655 | 1.38010 | 10320 ft | 296 kts | 278° |
| 2026-05-07 19:45 | 38.58027 | 1.35470 | 10198 ft | 284 kts | 278° |
| 2026-05-07 19:46 | 38.58384 | 1.33022 | 10074 ft | 273 kts | 279° |
| 2026-05-07 19:46 | 38.58722 | 1.30706 | 9960 ft | 264 kts | 279° |
| 2026-05-07 19:46 | 38.59055 | 1.28410 | 9682 ft | 261 kts | 279° |
| 2026-05-07 19:46 | 38.59392 | 1.26121 | 9374 ft | 259 kts | 281° |
| 2026-05-07 19:47 | 38.59878 | 1.23923 | 9032 ft | 260 kts | 287° |
| 2026-05-07 19:47 | 38.60451 | 1.21725 | 8712 ft | 259 kts | 288° |
| 2026-05-07 19:47 | 38.61027 | 1.19523 | 8323 ft | 261 kts | 288° |
| 2026-05-07 19:47 | 38.61591 | 1.17342 | 8007 ft | 261 kts | 288° |
| 2026-05-07 19:48 | 38.62154 | 1.15122 | 7685 ft | 260 kts | 288° |
| 2026-05-07 19:48 | 38.62707 | 1.12911 | 7369 ft | 260 kts | 288° |
| 2026-05-07 19:48 | 38.63252 | 1.10714 | 7062 ft | 260 kts | 288° |
| 2026-05-07 19:48 | 38.63796 | 1.08515 | 6772 ft | 259 kts | 289° |
| 2026-05-07 19:49 | 38.64471 | 1.06363 | 6418 ft | 261 kts | 295° |
| 2026-05-07 19:49 | 38.65232 | 1.04276 | 6069 ft | 262 kts | 297° |
| 2026-05-07 19:49 | 38.65994 | 1.02174 | 5639 ft | 259 kts | 298° |
| 2026-05-07 19:49 | 38.66966 | 1.00297 | 5279 ft | 248 kts | 322° |
| 2026-05-07 19:50 | 38.68453 | 0.99322 | 5064 ft | 237 kts | 350° |
| 2026-05-07 19:50 | 38.70061 | 0.99318 | 4880 ft | 229 kts | 15° |
| 2026-05-07 19:50 | 38.71488 | 1.00147 | 4643 ft | 227 kts | 36° |
| 2026-05-07 19:50 | 38.72256 | 1.01070 | 4486 ft | 232 kts | 51° |
| 2026-05-07 19:51 | 38.73086 | 1.02882 | 4291 ft | 236 kts | 59° |
| 2026-05-07 19:51 | 38.74106 | 1.05268 | 4162 ft | 221 kts | 60° |
| 2026-05-07 19:51 | 38.74806 | 1.06949 | 4050 ft | 206 kts | 60° |
| 2026-05-07 19:51 | 38.75449 | 1.08512 | 3949 ft | 190 kts | 60° |
| 2026-05-07 19:52 | 38.75846 | 1.09480 | 3880 ft | 179 kts | 59° |
| 2026-05-07 19:52 | 38.76395 | 1.10823 | 3820 ft | 158 kts | 59° |
| 2026-05-07 19:52 | 38.76885 | 1.12018 | 3747 ft | 148 kts | 59° |
| 2026-05-07 19:52 | 38.77361 | 1.13177 | 3612 ft | 146 kts | 59° |
| 2026-05-07 19:53 | 38.77839 | 1.14340 | 3463 ft | 149 kts | 59° |
| 2026-05-07 19:53 | 38.78318 | 1.15508 | 3288 ft | 150 kts | 58° |
| 2026-05-07 19:53 | 38.78798 | 1.16677 | 3241 ft | 145 kts | 58° |
| 2026-05-07 19:53 | 38.79280 | 1.17850 | 3106 ft | 151 kts | 59° |
| 2026-05-07 19:54 | 38.79764 | 1.19030 | 2916 ft | 148 kts | 59° |
| 2026-05-07 19:54 | 38.80241 | 1.20195 | 2730 ft | 146 kts | 58° |
| 2026-05-07 19:54 | 38.80710 | 1.21338 | 2523 ft | 143 kts | 58° |
| 2026-05-07 19:54 | 38.81178 | 1.22476 | 2338 ft | 145 kts | 59° |
| 2026-05-07 19:55 | 38.81648 | 1.23619 | 2140 ft | 147 kts | 59° |
| 2026-05-07 19:55 | 38.82113 | 1.24753 | 1940 ft | 139 kts | 59° |
| 2026-05-07 19:55 | 38.82542 | 1.25799 | 1771 ft | 128 kts | 58° |
| 2026-05-07 19:55 | 38.82959 | 1.26810 | 1598 ft | 129 kts | 58° |
| 2026-05-07 19:56 | 38.83378 | 1.27829 | 1426 ft | 130 kts | 59° |
| 2026-05-07 19:56 | 38.83798 | 1.28853 | 1253 ft | 127 kts | 58° |
| 2026-05-07 19:56 | 38.84209 | 1.29850 | 1077 ft | 126 kts | 58° |
| 2026-05-07 19:56 | 38.84620 | 1.30839 | 908 ft | 124 kts | 59° |
| 2026-05-07 19:57 | 38.85009 | 1.31826 | 761 ft | 124 kts | 61° |
| 2026-05-07 19:57 | 38.85423 | 1.32804 | 591 ft | 126 kts | 57° |
| 2026-05-07 19:57 | 38.85834 | 1.33798 | 418 ft | 124 kts | 58° |
| 2026-05-07 19:57 | 38.86243 | 1.34794 | 237 ft | 126 kts | 60° |
| 2026-05-07 19:58 | 38.86655 | 1.35805 | 30 ft | 128 kts | 58° |
| 2026-05-07 19:58 | 38.87037 | 1.36705 | 7 ft | 97 kts | 62° |
| 2026-05-07 19:58 | 38.87203 | 1.37112 | 11 ft | 21 kts | 63° |
| 2026-05-07 19:58 | 38.87281 | 1.37301 | 10 ft | 24 kts | 62° |
| 2026-05-07 19:59 | 38.87394 | 1.37448 | 9 ft | 23 kts | 36° |
| 2026-05-07 19:59 | 38.87524 | 1.37558 | 8 ft | 22 kts | 29° |
| 2026-05-07 19:59 | 38.87631 | 1.37524 | 8 ft | 15 kts | 331° |
| 2026-05-07 19:59 | 38.87695 | 1.37434 | 8 ft | 14 kts | 264° |
| 2026-05-07 20:00 | 38.87655 | 1.37325 | 9 ft | 13 kts | 243° |
| 2026-05-07 20:00 | 38.87611 | 1.37224 | 8 ft | 13 kts | 241° |
| 2026-05-07 20:00 | 38.87570 | 1.37123 | 7 ft | 13 kts | 243° |
| 2026-05-07 20:00 | 38.87574 | 1.37095 | 7 ft | 4 kts | 320° |
| 2026-05-07 20:01 | 38.87620 | 1.37059 | 7 ft | 4 kts | 332° |
| 2026-05-07 20:01 | 38.87623 | 1.37057 | 7 ft | 0 kts | 332° |